Overview Statistics Trail Chart Weather Telemetry Raw packets
 

This is the latest recevied weather packets stored in our database for station/object K4XP. If no packets are shown the sender has not sent any weather packets the latest 10 day(s).

<< 46 47 48 49 50 51 52 >>
Time Temp. Humidity Pressure Rain* Wind** Luminosity Snow
1788308725 30.56° C 67% 1017.7 hPa 0 mm - - -
1788308121 31.11° C 64% 1017.6 hPa 0 mm - - -
1788307832 31.11° C 63% 1017.6 hPa 0 mm - - -
1788307516 31.67° C 62% 1017.6 hPa 0 mm - - -
1788307227 32.22° C 61% 1017.5 hPa 0 mm - - -
1788306928 32.78° C 60% 1017.5 hPa 0 mm - - -
1788306612 32.78° C 60% 1017.5 hPa 0 mm - - -
1788306321 33.33° C 58% 1017.5 hPa 0 mm - - -
1788306030 33.33° C 56% 1017.6 hPa 0 mm - - -
1788305713 33.89° C 54% 1017.6 hPa 0 mm - - -
1788305417 34.44° C 54% 1017.6 hPa 0 mm - - -
1788305127 35° C 53% 1017.6 hPa 0 mm - - -
1788304218 36.67° C 48% 1017.7 hPa 0 mm - - -
1788303612 36.11° C 50% 1017.8 hPa 0 mm - - -
1788302122 36.11° C 50% 1017.7 hPa 0 mm - - -
1788301825 36.11° C 50% 1017.6 hPa 0 mm - - -
1788301511 36.11° C 50% 1017.7 hPa 0 mm - - -
1788301213 35.56° C 49% 1017.6 hPa 0 mm - - -
1788300921 35.56° C 49% 1017.6 hPa 0 mm - - -
1788300629 35.56° C 49% 1017.5 hPa 0 mm - - -
1788300327 35.56° C 48% 1017.6 hPa 0 mm - - -
1788300037 35.56° C 49% 1017.5 hPa 0 mm - - -
1788299719 35.56° C 49% 1017.5 hPa 0 mm - - -
1788299427 35.56° C 51% 1017.5 hPa 0 mm - - -
1788299127 35.56° C 49% 1017.5 hPa 0 mm - - -

* Rain latest hour (hover to see other rain measurements)
** Current wind speed in m/s (hover to see current wind gust speed)